createdAt,value
2019-01-13T00:00:43.583Z,31.61
2019-01-13T00:03:13.088Z,32.12
2019-01-13T00:05:42.705Z,32.27
2019-01-13T00:08:12.427Z,32.30
2019-01-13T00:10:42.053Z,32.13
2019-01-13T00:13:11.620Z,32.21
2019-01-13T00:15:41.155Z,32.15
2019-01-13T00:18:10.839Z,32.10
2019-01-13T00:20:40.349Z,32.05
2019-01-13T00:23:09.948Z,32.08
2019-01-13T00:25:39.681Z,32.01
2019-01-13T00:28:09.354Z,31.82
2019-01-13T00:30:39.074Z,31.86
2019-01-13T00:33:08.595Z,31.88
2019-01-13T00:35:38.412Z,31.92
2019-01-13T00:38:08.128Z,32.20
2019-01-13T00:40:38.665Z,32.05
2019-01-13T00:43:08.370Z,32.10
2019-01-13T00:45:37.969Z,31.99
2019-01-13T00:48:07.535Z,31.96
2019-01-13T00:50:37.296Z,31.85
2019-01-13T00:53:07.037Z,31.85
2019-01-13T00:55:36.708Z,31.83
2019-01-13T00:58:06.314Z,31.75
2019-01-13T01:00:35.943Z,31.77
2019-01-13T01:03:05.716Z,31.71
2019-01-13T01:05:35.361Z,31.73
2019-01-13T01:08:05.055Z,31.74
2019-01-13T01:10:34.676Z,31.71
2019-01-13T01:13:04.185Z,31.60
2019-01-13T01:15:34.037Z,31.59
2019-01-13T01:18:03.598Z,31.47
2019-01-13T01:20:33.397Z,31.53
2019-01-13T01:23:03.158Z,31.50
2019-01-13T01:25:32.731Z,31.47
2019-01-13T01:28:02.302Z,31.47
2019-01-13T01:30:33.583Z,31.52
2019-01-13T01:33:03.333Z,31.46
2019-01-13T01:35:32.934Z,31.43
2019-01-13T01:38:02.610Z,31.45
2019-01-13T01:40:32.118Z,31.48
2019-01-13T01:43:01.726Z,31.50
2019-01-13T01:45:31.448Z,31.87
2019-01-13T01:48:01.150Z,31.70
2019-01-13T01:50:30.873Z,31.64
2019-01-13T01:53:01.947Z,31.48
2019-01-13T01:55:31.830Z,31.64
2019-01-13T01:58:01.390Z,31.64
2019-01-13T02:00:31.091Z,31.63
2019-01-13T02:03:00.668Z,31.61
2019-01-13T02:05:30.251Z,31.60
2019-01-13T02:07:59.966Z,31.54
2019-01-13T02:10:29.671Z,31.61
2019-01-13T02:12:59.402Z,31.62
2019-01-13T02:15:28.983Z,31.52
2019-01-13T02:17:58.719Z,31.45
2019-01-13T02:20:28.265Z,31.47
2019-01-13T02:22:57.824Z,31.53
2019-01-13T02:25:28.664Z,31.49
2019-01-13T02:27:58.297Z,31.51
2019-01-13T02:30:28.394Z,31.59
2019-01-13T02:32:57.953Z,31.52
2019-01-13T02:35:27.601Z,31.45
2019-01-13T02:37:57.168Z,31.40
2019-01-13T02:40:26.814Z,31.46
2019-01-13T02:42:56.528Z,31.45
2019-01-13T02:45:28.319Z,31.45
2019-01-13T02:47:57.896Z,31.48
2019-01-13T02:50:27.605Z,31.44
2019-01-13T02:52:57.226Z,31.51
2019-01-13T02:55:26.933Z,31.55
2019-01-13T02:57:56.651Z,31.41
2019-01-13T03:00:27.273Z,31.54
2019-01-13T03:02:56.885Z,31.52
2019-01-13T03:07:54.910Z,31.51
2019-01-13T03:10:27.545Z,31.42
2019-01-13T03:12:57.167Z,31.42
2019-01-13T03:15:27.381Z,31.41
2019-01-13T03:17:56.877Z,31.53
2019-01-13T03:20:26.600Z,31.48
2019-01-13T03:22:56.208Z,31.48
2019-01-13T03:25:25.812Z,31.38
2019-01-13T03:27:55.426Z,31.54
2019-01-13T03:30:25.960Z,31.52
2019-01-13T03:32:55.464Z,31.57
2019-01-13T03:35:25.062Z,31.63
2019-01-13T03:37:54.695Z,31.65
2019-01-13T03:40:27.354Z,31.62
2019-01-13T03:42:57.079Z,31.54
2019-01-13T03:45:26.885Z,31.56
2019-01-13T03:47:56.599Z,31.58
2019-01-13T03:50:26.099Z,31.63
2019-01-13T03:52:55.747Z,31.69
2019-01-13T03:55:25.828Z,31.72
2019-01-13T03:57:55.547Z,31.75
2019-01-13T04:00:26.186Z,31.77
2019-01-13T04:02:55.773Z,31.71
2019-01-13T04:05:25.381Z,31.67
2019-01-13T04:07:55.002Z,31.68
2019-01-13T04:10:24.708Z,31.69
2019-01-13T04:12:54.208Z,31.70
2019-01-13T04:15:53.202Z,31.68
2019-01-13T04:18:22.923Z,31.74
2019-01-13T04:20:52.527Z,31.62
2019-01-13T04:23:22.239Z,31.64
2019-01-13T04:25:51.855Z,31.57
2019-01-13T04:28:21.562Z,31.88
2019-01-13T04:30:51.156Z,32.00
2019-01-13T04:33:20.815Z,32.12
2019-01-13T04:35:50.491Z,31.98
2019-01-13T04:38:20.212Z,31.84
2019-01-13T04:40:49.910Z,31.80
2019-01-13T04:43:19.420Z,31.82
2019-01-13T04:45:49.027Z,31.73
2019-01-13T04:48:18.630Z,31.71
2019-01-13T04:50:48.445Z,31.70
2019-01-13T04:53:18.164Z,31.69
2019-01-13T04:55:47.873Z,31.76
2019-01-13T04:58:17.585Z,31.67
2019-01-13T05:00:47.087Z,31.59
2019-01-13T05:03:16.695Z,31.62
2019-01-13T05:05:46.307Z,31.55
2019-01-13T05:08:15.814Z,31.56
2019-01-13T05:10:45.483Z,31.64
2019-01-13T05:13:15.127Z,31.56
2019-01-13T05:15:44.833Z,31.64
2019-01-13T05:18:14.470Z,31.66
2019-01-13T05:20:44.160Z,31.71
2019-01-13T05:23:13.872Z,31.63
2019-01-13T05:25:43.464Z,31.54
2019-01-13T05:28:13.190Z,31.63
2019-01-13T05:30:42.937Z,31.79
2019-01-13T05:33:12.620Z,31.72
2019-01-13T05:35:42.228Z,31.65
2019-01-13T05:38:11.965Z,31.82
2019-01-13T05:40:41.639Z,31.67
2019-01-13T05:43:11.367Z,31.71
2019-01-13T05:45:41.063Z,31.71
2019-01-13T05:48:10.602Z,31.73
2019-01-13T05:50:40.390Z,31.82
2019-01-13T05:53:10.021Z,31.66
2019-01-13T05:55:39.882Z,31.62
2019-01-13T05:58:09.434Z,31.54
2019-01-13T06:00:42.805Z,31.53
2019-01-13T06:03:13.131Z,31.55
2019-01-13T06:05:42.758Z,31.54
2019-01-13T06:08:12.461Z,31.50
2019-01-13T06:10:42.100Z,31.47
2019-01-13T06:13:11.881Z,31.50
2019-01-13T06:15:41.488Z,31.58
2019-01-13T06:18:11.195Z,31.46
2019-01-13T06:20:40.916Z,31.54
2019-01-13T06:23:10.537Z,31.66
2019-01-13T06:25:40.237Z,31.47
2019-01-13T06:28:09.972Z,31.52
2019-01-13T06:30:39.644Z,31.48
2019-01-13T06:33:09.247Z,31.49
2019-01-13T06:35:38.964Z,31.63
2019-01-13T06:38:08.720Z,31.51
2019-01-13T06:43:06.842Z,31.45
2019-01-13T06:45:36.581Z,31.30
2019-01-13T06:48:06.195Z,31.69
2019-01-13T06:50:35.797Z,31.68
2019-01-13T06:53:05.502Z,31.62
2019-01-13T06:55:35.148Z,31.80
2019-01-13T06:58:04.827Z,31.96
2019-01-13T07:00:34.402Z,32.03
2019-01-13T07:03:03.937Z,32.20
2019-01-13T07:05:33.715Z,32.02
2019-01-13T07:08:03.468Z,31.91
2019-01-13T07:10:33.069Z,31.58
2019-01-13T07:13:02.493Z,31.25
2019-01-13T07:15:32.194Z,30.96
2019-01-13T07:18:01.775Z,30.71
2019-01-13T07:20:31.403Z,30.32
2019-01-13T07:23:01.007Z,30.10
2019-01-13T07:25:30.636Z,24.16
2019-01-13T07:28:00.323Z,22.78
2019-01-13T07:30:30.022Z,21.92
2019-01-13T07:32:59.663Z,20.84
2019-01-13T07:35:29.228Z,20.56
2019-01-13T07:37:58.694Z,19.82
2019-01-13T07:40:28.371Z,19.00
2019-01-13T07:42:57.982Z,18.69
2019-01-13T07:45:28.668Z,18.67
2019-01-13T07:47:58.321Z,20.30
2019-01-13T07:50:28.317Z,21.35
2019-01-13T07:52:57.850Z,22.53
2019-01-13T07:55:27.477Z,22.77
2019-01-13T07:57:57.092Z,22.90
2019-01-13T08:00:31.767Z,23.06
2019-01-13T08:03:02.113Z,23.30
2019-01-13T08:05:31.736Z,23.84
2019-01-13T08:08:01.286Z,24.36
2019-01-13T08:10:30.953Z,24.76
2019-01-13T08:13:00.568Z,25.04
2019-01-13T08:15:30.176Z,25.56
2019-01-13T08:17:59.865Z,25.91
2019-01-13T08:20:33.279Z,25.91
2019-01-13T08:23:02.989Z,26.17
2019-01-13T08:25:32.704Z,26.35
2019-01-13T08:28:02.301Z,26.53
2019-01-13T08:30:32.013Z,26.90
2019-01-13T08:33:01.625Z,28.12
2019-01-13T08:35:31.236Z,27.94
2019-01-13T08:38:00.831Z,28.34
2019-01-13T08:40:30.474Z,28.30
2019-01-13T08:43:00.163Z,29.46
2019-01-13T08:45:29.770Z,29.28
2019-01-13T08:47:59.381Z,28.78
2019-01-13T08:50:29.481Z,30.83
2019-01-13T08:52:59.207Z,30.03
2019-01-13T08:55:29.694Z,30.43
2019-01-13T08:57:59.358Z,30.04
2019-01-13T09:00:33.573Z,30.14
2019-01-13T09:03:07.595Z,30.60
2019-01-13T09:05:37.297Z,30.18
2019-01-13T09:08:07.717Z,30.45
2019-01-13T09:10:37.287Z,30.36
2019-01-13T09:13:06.821Z,30.57
2019-01-13T09:15:36.555Z,30.61
2019-01-13T09:18:06.143Z,30.73
2019-01-13T09:20:35.839Z,30.88
2019-01-13T09:23:05.591Z,30.89
2019-01-13T09:25:36.763Z,31.13
2019-01-13T09:28:07.275Z,31.22
2019-01-13T09:30:36.980Z,31.26
2019-01-13T09:33:06.862Z,31.27
2019-01-13T09:35:36.482Z,31.47
2019-01-13T09:38:06.845Z,31.36
2019-01-13T09:40:36.545Z,31.42
2019-01-13T09:45:34.850Z,32.70
2019-01-13T09:48:04.414Z,32.87
2019-01-13T09:50:33.888Z,32.41
2019-01-13T09:53:03.537Z,34.04
2019-01-13T09:55:33.144Z,34.45
2019-01-13T09:58:02.708Z,34.62
2019-01-13T10:00:36.531Z,34.82
2019-01-13T10:03:09.777Z,34.93
2019-01-13T10:05:39.464Z,34.71
2019-01-13T10:08:09.155Z,33.98
2019-01-13T10:10:38.752Z,33.79
2019-01-13T10:13:08.291Z,34.48
2019-01-13T10:15:37.652Z,34.53
2019-01-13T10:18:07.291Z,33.88
2019-01-13T10:20:36.909Z,34.10
2019-01-13T10:23:06.474Z,33.96
2019-01-13T10:25:36.023Z,34.05
2019-01-13T10:28:05.964Z,33.68
2019-01-13T10:30:35.657Z,34.17
2019-01-13T10:33:05.203Z,34.13
2019-01-13T10:35:34.762Z,34.47
2019-01-13T10:38:04.375Z,34.24
2019-01-13T10:40:33.939Z,34.40
2019-01-13T10:43:03.499Z,34.49
2019-01-13T10:45:33.127Z,34.78
2019-01-13T10:48:02.809Z,34.57
2019-01-13T10:50:32.823Z,34.48
2019-01-13T10:53:07.143Z,34.67
2019-01-13T10:55:36.650Z,34.51
2019-01-13T10:58:06.668Z,34.68
2019-01-13T11:00:39.227Z,34.68
2019-01-13T11:03:08.814Z,34.22
2019-01-13T11:05:38.346Z,34.68
2019-01-13T11:08:11.624Z,34.83
2019-01-13T11:10:39.407Z,35.02
2019-01-13T11:13:09.136Z,35.14
2019-01-13T11:15:38.865Z,34.88
2019-01-13T11:18:08.662Z,34.73
2019-01-13T11:20:41.537Z,30.66
2019-01-13T11:23:11.161Z,33.11
2019-01-13T11:25:40.841Z,33.79
2019-01-13T11:28:10.479Z,33.34
2019-01-13T11:30:40.077Z,34.55
2019-01-13T11:33:10.023Z,33.74
2019-01-13T11:35:39.493Z,34.06
2019-01-13T11:38:09.832Z,32.44
2019-01-13T11:40:39.480Z,33.69
2019-01-13T11:43:09.147Z,33.94
2019-01-13T11:45:38.743Z,34.05
2019-01-13T11:48:08.576Z,35.09
2019-01-13T11:50:38.171Z,34.92
2019-01-13T11:53:07.905Z,33.26
2019-01-13T11:55:37.702Z,34.70
2019-01-13T11:58:07.677Z,34.14
2019-01-13T12:00:39.789Z,34.10
2019-01-13T12:03:16.508Z,34.04
2019-01-13T12:05:40.955Z,32.60
2019-01-13T12:08:10.668Z,34.15
2019-01-13T12:10:40.280Z,33.24
2019-01-13T12:13:09.793Z,33.23
2019-01-13T12:15:39.354Z,33.63
2019-01-13T12:18:08.905Z,33.39
2019-01-13T12:20:38.704Z,33.91
2019-01-13T12:23:08.331Z,33.75
2019-01-13T12:25:38.009Z,34.05
2019-01-13T12:28:07.743Z,33.61
2019-01-13T12:30:37.326Z,33.65
2019-01-13T12:33:07.106Z,33.70
2019-01-13T12:35:36.775Z,33.99
2019-01-13T12:38:06.462Z,33.76
2019-01-13T12:40:36.110Z,33.99
2019-01-13T12:43:06.849Z,34.27
2019-01-13T12:45:36.477Z,33.91
2019-01-13T12:48:06.205Z,34.06
2019-01-13T12:50:36.082Z,34.23
2019-01-13T12:53:05.748Z,34.08
2019-01-13T12:55:35.462Z,33.86
2019-01-13T12:58:05.129Z,33.50
2019-01-13T13:00:34.786Z,33.73
2019-01-13T13:03:04.686Z,33.57
2019-01-13T13:05:34.516Z,33.59
2019-01-13T13:08:04.131Z,33.48
2019-01-13T13:10:38.641Z,33.59
2019-01-13T13:13:08.706Z,33.84
2019-01-13T13:15:38.377Z,34.33
2019-01-13T13:18:07.992Z,34.08
2019-01-13T13:20:37.594Z,34.26
2019-01-13T13:23:07.414Z,34.42
2019-01-13T13:25:37.023Z,35.24
2019-01-13T13:28:07.132Z,33.10
2019-01-13T13:30:36.760Z,31.33
2019-01-13T13:33:06.576Z,31.98
2019-01-13T13:35:39.845Z,34.14
2019-01-13T13:38:07.731Z,34.84
2019-01-13T13:40:37.333Z,34.49
2019-01-13T13:43:07.042Z,33.75
2019-01-13T13:45:36.640Z,35.89
2019-01-13T13:48:06.668Z,35.61
2019-01-13T13:50:36.131Z,35.51
2019-01-13T13:53:06.193Z,36.70
2019-01-13T13:55:35.798Z,37.04
2019-01-13T13:58:05.537Z,35.70
2019-01-13T14:00:36.475Z,37.01
2019-01-13T14:03:06.381Z,37.11
2019-01-13T14:05:36.075Z,37.63
2019-01-13T14:08:05.930Z,37.62
2019-01-13T14:10:38.098Z,37.49
2019-01-13T14:13:07.804Z,37.46
2019-01-13T14:15:37.397Z,36.02
2019-01-13T14:18:07.121Z,36.95
2019-01-13T14:20:36.830Z,36.47
2019-01-13T14:23:06.551Z,33.09
2019-01-13T14:25:36.135Z,31.00
2019-01-13T14:28:05.946Z,36.28
2019-01-13T14:30:35.749Z,32.47
2019-01-13T14:33:05.587Z,30.89
2019-01-13T14:35:35.278Z,34.82
2019-01-13T14:38:05.020Z,35.36
2019-01-13T14:40:34.587Z,34.50
2019-01-13T14:43:04.210Z,34.29
2019-01-13T14:45:33.839Z,35.11
2019-01-13T14:48:03.512Z,35.49
2019-01-13T14:50:33.998Z,35.09
2019-01-13T14:53:04.216Z,34.79
2019-01-13T14:55:33.890Z,34.67
2019-01-13T14:58:03.511Z,35.61
2019-01-13T15:00:33.625Z,35.07
2019-01-13T15:03:03.727Z,35.10
2019-01-13T15:05:33.369Z,34.26
2019-01-13T15:08:03.251Z,34.02
2019-01-13T15:10:32.898Z,34.84
2019-01-13T15:13:02.576Z,35.07
2019-01-13T15:15:32.297Z,34.32
2019-01-13T15:18:01.923Z,35.35
2019-01-13T15:20:31.618Z,35.82
2019-01-13T15:23:01.231Z,34.83
2019-01-13T15:25:31.705Z,36.28
2019-01-13T15:28:01.354Z,35.32
2019-01-13T15:30:32.903Z,34.99
2019-01-13T15:33:02.614Z,33.99
2019-01-13T15:35:32.334Z,33.98
2019-01-13T15:38:02.027Z,33.85
2019-01-13T15:40:31.653Z,33.74
2019-01-13T15:43:01.314Z,33.60
2019-01-13T15:45:30.987Z,33.25
2019-01-13T15:48:00.528Z,33.11
2019-01-13T15:50:30.904Z,32.83
2019-01-13T15:53:00.492Z,32.78
2019-01-13T15:55:30.246Z,32.73
2019-01-13T15:57:59.802Z,32.52
2019-01-13T16:00:31.292Z,32.32
2019-01-13T16:03:01.095Z,32.07
2019-01-13T16:05:30.814Z,31.74
2019-01-13T16:08:01.566Z,31.63
2019-01-13T16:10:31.287Z,31.61
2019-01-13T16:13:00.822Z,31.72
2019-01-13T16:15:34.399Z,31.28
2019-01-13T16:18:02.168Z,31.41
2019-01-13T16:20:37.664Z,31.12
2019-01-13T16:23:07.525Z,31.04
2019-01-13T16:25:37.270Z,31.13
2019-01-13T16:28:06.949Z,31.00
2019-01-13T16:30:36.663Z,30.77
2019-01-13T16:33:06.508Z,30.61
2019-01-13T16:35:36.427Z,30.43
2019-01-13T16:38:06.876Z,30.16
2019-01-13T16:40:36.764Z,30.09
2019-01-13T16:43:06.744Z,30.25
2019-01-13T16:45:37.058Z,30.18
2019-01-13T16:48:07.010Z,30.09
2019-01-13T16:50:36.893Z,30.23
2019-01-13T16:53:06.719Z,29.97
2019-01-13T16:55:36.624Z,30.08
2019-01-13T16:58:05.968Z,29.91
2019-01-13T17:00:35.576Z,29.83
2019-01-13T17:03:05.441Z,29.80
2019-01-13T17:05:35.034Z,29.77
2019-01-13T17:08:04.623Z,29.66
2019-01-13T17:10:34.247Z,29.55
2019-01-13T17:13:03.964Z,29.55
2019-01-13T17:15:35.255Z,29.52
2019-01-13T17:18:05.108Z,29.42
2019-01-13T17:20:34.522Z,29.32
2019-01-13T17:23:04.220Z,29.33
2019-01-13T17:25:33.843Z,29.29
2019-01-13T17:28:04.905Z,29.09
2019-01-13T17:30:35.899Z,29.05
2019-01-13T17:33:05.722Z,29.01
2019-01-13T17:35:35.520Z,28.97
2019-01-13T17:38:05.357Z,28.87
2019-01-13T17:40:34.995Z,28.82
2019-01-13T17:43:04.783Z,28.75
2019-01-13T17:45:34.853Z,28.77
2019-01-13T17:48:04.793Z,28.69
2019-01-13T17:50:34.323Z,28.68
2019-01-13T17:53:03.925Z,28.71
2019-01-13T17:55:33.677Z,28.66
2019-01-13T17:58:03.266Z,28.66
2019-01-13T18:00:50.953Z,28.58
2019-01-13T18:03:27.870Z,28.58
2019-01-13T18:05:57.474Z,28.50
2019-01-13T18:08:27.182Z,28.46
2019-01-13T18:10:56.859Z,28.73
2019-01-13T18:13:26.540Z,28.86
2019-01-13T18:15:56.246Z,28.84
2019-01-13T18:18:25.795Z,28.77
2019-01-13T18:20:55.440Z,26.98
2019-01-13T18:23:24.969Z,27.35
2019-01-13T18:25:54.671Z,27.58
2019-01-13T18:28:24.361Z,27.90
2019-01-13T18:30:53.967Z,27.76
2019-01-13T18:33:23.367Z,27.83
2019-01-13T18:35:52.993Z,27.76
2019-01-13T18:38:22.692Z,27.75
2019-01-13T18:40:52.375Z,27.73
2019-01-13T18:43:21.993Z,27.65
2019-01-13T18:46:58.632Z,27.70
2019-01-13T18:50:15.807Z,27.73
2019-01-13T18:53:39.913Z,27.74
2019-01-13T18:56:09.502Z,27.75
2019-01-13T18:59:39.912Z,28.06
2019-01-13T19:02:17.717Z,27.65
2019-01-13T19:05:37.267Z,27.92
2019-01-13T19:08:06.840Z,29.31
2019-01-13T19:11:04.409Z,29.91
2019-01-13T19:14:33.227Z,30.00
2019-01-13T19:17:12.999Z,30.16
2019-01-13T19:20:23.553Z,30.07
2019-01-13T19:23:53.817Z,29.91
2019-01-13T19:26:23.330Z,29.77
2019-01-13T19:29:55.587Z,29.64
2019-01-13T19:32:25.136Z,29.61
2019-01-13T19:35:59.456Z,29.47
2019-01-13T19:39:15.299Z,29.91
2019-01-13T19:42:16.203Z,29.58
2019-01-13T19:44:47.962Z,29.92
2019-01-13T19:47:17.683Z,30.04
2019-01-13T19:49:47.264Z,30.08
2019-01-13T19:52:16.875Z,30.15
2019-01-13T19:54:46.447Z,30.13
2019-01-13T19:57:16.493Z,30.43
2019-01-13T19:59:46.069Z,30.24
2019-01-13T20:02:15.614Z,30.29
2019-01-13T20:04:45.228Z,29.98
2019-01-13T20:07:14.794Z,30.31
2019-01-13T20:09:44.348Z,30.03
2019-01-13T20:12:13.848Z,29.80
2019-01-13T20:14:43.412Z,29.76
2019-01-13T20:17:13.069Z,29.65
2019-01-13T20:19:43.346Z,29.73
2019-01-13T20:22:16.346Z,29.59
2019-01-13T20:25:45.071Z,29.56
2019-01-13T20:29:03.257Z,29.48
2019-01-13T20:31:36.733Z,29.46
2019-01-13T20:34:07.632Z,29.39
2019-01-13T20:36:39.991Z,29.29
2019-01-13T20:39:10.966Z,29.21
2019-01-13T20:41:40.658Z,29.19
2019-01-13T20:44:10.194Z,29.13
2019-01-13T20:46:39.891Z,29.06
2019-01-13T20:49:09.519Z,29.03
2019-01-13T20:51:39.212Z,29.00
2019-01-13T20:54:08.828Z,28.97
2019-01-13T20:56:38.534Z,28.89
2019-01-13T20:59:08.249Z,28.82
2019-01-13T21:01:37.758Z,28.80
2019-01-13T21:04:07.458Z,28.82
2019-01-13T21:06:37.089Z,28.73
2019-01-13T21:09:09.434Z,28.72
2019-01-13T21:11:39.242Z,28.68
2019-01-13T21:14:08.862Z,28.72
2019-01-13T21:16:38.488Z,28.74
2019-01-13T21:19:08.078Z,28.71
2019-01-13T21:21:37.687Z,28.63
2019-01-13T21:24:07.397Z,28.59
2019-01-13T21:26:36.918Z,28.61
2019-01-13T21:29:06.614Z,28.56
2019-01-13T21:31:36.347Z,28.51
2019-01-13T21:34:06.043Z,28.47
2019-01-13T21:36:35.649Z,28.55
2019-01-13T21:39:08.009Z,28.46
2019-01-13T21:41:37.742Z,28.47
2019-01-13T21:44:07.457Z,28.53
2019-01-13T21:46:37.157Z,28.41
2019-01-13T21:49:06.868Z,28.34
2019-01-13T21:51:36.497Z,28.36
2019-01-13T21:54:10.888Z,28.41
2019-01-13T21:56:37.543Z,28.37
2019-01-13T21:59:07.148Z,28.40
2019-01-13T22:01:36.725Z,28.33
2019-01-13T22:04:06.220Z,28.29
2019-01-13T22:06:35.767Z,28.23
2019-01-13T22:09:08.745Z,28.19
2019-01-13T22:11:38.360Z,28.09
2019-01-13T22:14:07.991Z,28.15
2019-01-13T22:16:37.682Z,28.11
2019-01-13T22:19:07.146Z,28.08
2019-01-13T22:21:36.664Z,28.01
2019-01-13T22:24:06.198Z,28.00
2019-01-13T22:26:35.717Z,27.97
2019-01-13T22:29:03.364Z,27.86
2019-01-13T22:31:31.035Z,27.82
2019-01-13T22:33:58.688Z,27.87
2019-01-13T22:36:26.349Z,28.08
2019-01-13T22:38:54.022Z,28.00
2019-01-13T22:41:21.677Z,27.96
2019-01-13T22:43:51.138Z,27.94
2019-01-13T22:46:20.676Z,27.96
2019-01-13T22:48:50.411Z,27.94
2019-01-13T22:51:20.001Z,27.90
2019-01-13T22:53:49.637Z,27.75
2019-01-13T22:56:19.224Z,27.50
2019-01-13T22:58:48.959Z,27.55
2019-01-13T23:01:33.108Z,27.48
2019-01-13T23:04:14.557Z,27.44
2019-01-13T23:06:44.074Z,27.46
2019-01-13T23:09:14.129Z,27.45
2019-01-13T23:11:43.807Z,27.53
2019-01-13T23:14:13.446Z,27.48
2019-01-13T23:16:42.934Z,27.45
2019-01-13T23:19:12.575Z,27.42
2019-01-13T23:21:42.256Z,27.37
2019-01-13T23:24:11.854Z,27.36
2019-01-13T23:26:41.396Z,27.10
2019-01-13T23:29:11.072Z,27.04
2019-01-13T23:31:40.681Z,27.04
2019-01-13T23:34:10.180Z,26.86
2019-01-13T23:36:39.694Z,26.91
2019-01-13T23:39:09.692Z,26.95
2019-01-13T23:41:39.330Z,26.92
2019-01-13T23:44:08.991Z,26.96
2019-01-13T23:46:38.642Z,27.02
2019-01-13T23:49:08.517Z,26.95
2019-01-13T23:51:38.162Z,26.84
2019-01-13T23:54:07.766Z,26.73
2019-01-13T23:56:37.527Z,26.61
2019-01-13T23:59:07.186Z,26.51
